Cerberus, Australia
Current Conditions -  °F | °C
As of 3:30 AM on Friday 31 Oct 2014 (Local Time) from YMAV Reporting Station
Broken Clouds Broken Clouds  
Wind Chill: 45°   Ceiling: 1600
Heat Index: 48°   Visibility: 6mi
Dew Point: 46°   Wind: 7mph
Humidity: 93%   Direction: 10°N
Pressure: 29.85"   Gusts: NA
Location:  38.35°S, 145.17°E
Report Text: YMAV 301630Z AUTO 01006KT 9999 // BKN016 09/08 Q1011
Loading
Personal Weather Stations






























Interactive Weather Map
Tropical Storm Tracking
New forecast layout! Learn more

10-Day Weather Forecast

Advertisements
Track Severe Weather on mobile